createdAt,value
2019-02-07T00:02:37.136Z,98490.56
2019-02-07T00:05:41.588Z,98486.95
2019-02-07T00:08:46.036Z,98480.22
2019-02-07T00:11:50.505Z,98471.61
2019-02-07T00:14:55.231Z,98464.00
2019-02-07T00:17:59.777Z,98463.00
2019-02-07T00:21:04.232Z,98468.31
2019-02-07T00:24:09.040Z,98463.96
2019-02-07T00:27:13.612Z,98465.72
2019-02-07T00:30:21.486Z,98471.08
2019-02-07T00:33:25.986Z,98463.06
2019-02-07T00:36:31.119Z,98455.86
2019-02-07T00:39:35.561Z,98459.02
2019-02-07T00:42:40.311Z,98456.16
2019-02-07T00:45:45.007Z,98461.14
2019-02-07T00:48:49.462Z,98456.67
2019-02-07T00:51:54.264Z,98449.98
2019-02-07T00:54:58.715Z,98455.45
2019-02-07T00:58:03.226Z,98457.06
2019-02-07T01:01:07.676Z,98448.27
2019-02-07T01:04:12.371Z,98445.61
2019-02-07T01:07:16.827Z,98444.98
2019-02-07T01:10:30.109Z,98442.55
2019-02-07T01:13:34.627Z,98441.14
2019-02-07T01:16:39.253Z,98428.27
2019-02-07T01:19:44.008Z,98431.70
2019-02-07T01:22:49.350Z,98429.77
2019-02-07T01:25:53.796Z,98437.98
2019-02-07T01:28:58.241Z,98439.22
2019-02-07T01:32:02.687Z,98436.63
2019-02-07T01:35:07.466Z,98437.87
2019-02-07T01:38:11.917Z,98438.41
2019-02-07T01:41:16.375Z,98427.75
2019-02-07T01:44:20.828Z,98423.63
2019-02-07T01:47:25.283Z,98418.83
2019-02-07T01:50:29.745Z,98418.21
2019-02-07T01:53:34.200Z,98415.80
2019-02-07T01:56:38.678Z,98406.38
2019-02-07T01:59:43.141Z,98403.11
2019-02-07T02:02:48.193Z,98395.26
2019-02-07T02:05:52.646Z,98392.66
2019-02-07T02:08:57.094Z,98384.81
2019-02-07T02:12:01.632Z,98379.08
2019-02-07T02:15:09.599Z,98374.80
2019-02-07T02:18:14.084Z,98370.13
2019-02-07T02:21:18.548Z,98364.50
2019-02-07T02:27:29.976Z,98373.11
2019-02-07T02:30:36.533Z,98363.63
2019-02-07T02:33:41.276Z,98363.80
2019-02-07T02:36:45.727Z,98358.70
2019-02-07T02:39:50.182Z,98355.86
2019-02-07T02:42:54.931Z,98362.19
2019-02-07T02:45:59.395Z,98357.47
2019-02-07T02:49:03.866Z,98352.33
2019-02-07T02:52:08.714Z,98354.46
2019-02-07T02:55:15.042Z,98349.11
2019-02-07T02:58:19.509Z,98334.52
2019-02-07T03:01:25.877Z,98330.82
2019-02-07T03:04:37.728Z,98322.61
2019-02-07T03:07:43.813Z,98312.02
2019-02-07T03:10:48.397Z,98320.61
2019-02-07T03:14:10.842Z,98333.41
2019-02-07T03:17:26.480Z,98321.05
2019-02-07T03:20:48.988Z,98312.86
2019-02-07T03:23:59.101Z,98307.37
2019-02-07T03:27:05.447Z,98302.70
2019-02-07T03:30:30.481Z,98288.83
2019-02-07T03:33:36.824Z,98300.47
2019-02-07T03:36:49.022Z,98300.49
2019-02-07T03:40:03.890Z,98292.80
2019-02-07T03:43:15.899Z,98278.98
2019-02-07T03:46:25.072Z,98281.54
2019-02-07T03:49:34.012Z,98272.28
2019-02-07T03:52:42.681Z,98268.25
2019-02-07T03:56:00.940Z,98273.13
2019-02-07T03:59:10.229Z,98272.41
2019-02-07T04:02:32.663Z,98276.06
2019-02-07T04:05:40.218Z,98272.31
2019-02-07T04:08:46.304Z,98269.88
2019-02-07T04:12:08.594Z,98275.34
2019-02-07T04:15:29.824Z,98271.15
2019-02-07T04:18:39.078Z,98255.13
2019-02-07T04:21:51.466Z,98252.18
2019-02-07T04:25:13.716Z,98248.23
2019-02-07T04:28:25.617Z,98254.93
2019-02-07T04:31:34.657Z,98243.29
2019-02-07T04:34:56.790Z,98245.69
2019-02-07T04:38:05.316Z,98246.74
2019-02-07T04:41:26.441Z,98231.83
2019-02-07T04:44:33.137Z,98245.31
2019-02-07T04:47:57.432Z,98228.81
2019-02-07T04:51:03.510Z,98233.98
2019-02-07T04:54:20.149Z,98240.27
2019-02-07T04:57:29.403Z,98240.48
2019-02-07T05:00:39.619Z,98240.58
2019-02-07T05:03:48.650Z,98229.74
2019-02-07T05:07:00.415Z,98223.16
2019-02-07T05:10:14.439Z,98216.58
2019-02-07T05:13:32.552Z,98222.05
2019-02-07T05:16:43.717Z,98226.00
2019-02-07T05:19:59.041Z,98211.72
2019-02-07T05:23:17.336Z,98211.92
2019-02-07T05:26:29.031Z,98210.20
2019-02-07T05:29:50.409Z,98211.20
2019-02-07T05:32:56.525Z,98216.95
2019-02-07T05:36:11.947Z,98215.16
2019-02-07T05:39:20.443Z,98212.42
2019-02-07T05:42:29.173Z,98195.39
2019-02-07T05:45:35.260Z,98207.27
2019-02-07T05:48:48.998Z,98213.45
2019-02-07T05:51:59.464Z,98227.02
2019-02-07T05:55:13.107Z,98230.27
2019-02-07T05:58:21.863Z,98223.25
2019-02-07T06:01:37.509Z,98202.98
2019-02-07T06:04:43.883Z,98210.81
2019-02-07T06:07:56.847Z,98210.05
2019-02-07T06:11:17.921Z,98196.50
2019-02-07T06:14:39.050Z,98200.53
2019-02-07T06:17:47.789Z,98198.00
2019-02-07T06:20:59.635Z,98192.98
2019-02-07T06:24:15.056Z,98189.88
2019-02-07T06:27:29.673Z,98192.23
2019-02-07T06:30:36.074Z,98187.49
2019-02-07T06:33:55.386Z,98186.38
2019-02-07T06:37:03.887Z,98178.91
2019-02-07T06:40:20.348Z,98185.98
2019-02-07T06:43:41.046Z,98180.22
2019-02-07T06:46:56.298Z,98181.42
2019-02-07T06:50:02.386Z,98181.83
2019-02-07T06:53:25.214Z,98179.91
2019-02-07T06:56:43.546Z,98171.37
2019-02-07T06:59:49.674Z,98159.46
2019-02-07T07:02:53.898Z,98161.33
2019-02-07T07:06:02.359Z,98158.24
2019-02-07T07:09:29.577Z,98157.54
2019-02-07T07:12:38.707Z,98156.50
2019-02-07T07:15:46.000Z,98158.65
2019-02-07T07:19:03.938Z,98157.21
2019-02-07T07:22:25.263Z,98147.38
2019-02-07T07:25:34.244Z,98140.80
2019-02-07T07:28:40.883Z,98137.45
2019-02-07T07:31:54.302Z,98137.33
2019-02-07T07:35:16.861Z,98136.19
2019-02-07T07:38:25.723Z,98136.01
2019-02-07T07:41:35.727Z,98128.72
2019-02-07T07:44:48.351Z,98127.06
2019-02-07T07:47:57.415Z,98125.03
2019-02-07T07:51:03.753Z,98127.67
2019-02-07T07:54:10.128Z,98130.72
2019-02-07T07:57:16.580Z,98127.42
2019-02-07T08:00:21.129Z,98122.20
2019-02-07T08:03:27.199Z,98103.87
2019-02-07T08:06:33.857Z,98103.72
2019-02-07T08:09:39.929Z,98103.13
2019-02-07T08:12:58.473Z,98096.19
2019-02-07T08:16:07.510Z,98095.02
2019-02-07T08:19:16.399Z,98098.69
2019-02-07T08:22:20.616Z,98101.13
2019-02-07T08:25:29.383Z,98101.17
2019-02-07T08:28:41.690Z,98095.95
2019-02-07T08:31:55.207Z,98098.96
2019-02-07T08:35:03.941Z,98094.81
2019-02-07T08:38:10.023Z,98088.67
2019-02-07T08:41:30.954Z,98085.67
2019-02-07T08:44:37.030Z,98089.52
2019-02-07T08:47:58.337Z,98082.67
2019-02-07T08:51:02.488Z,98086.27
2019-02-07T08:54:08.990Z,98085.00
2019-02-07T08:57:27.136Z,98090.57
2019-02-07T09:00:39.444Z,98086.88
2019-02-07T09:04:01.993Z,98086.77
2019-02-07T09:07:24.951Z,98094.36
2019-02-07T09:10:47.187Z,98088.30
2019-02-07T09:13:53.704Z,98087.06
2019-02-07T09:17:00.341Z,98077.11
2019-02-07T09:20:12.125Z,98071.25
2019-02-07T09:23:35.023Z,98072.67
2019-02-07T09:26:46.953Z,98069.92
2019-02-07T09:30:08.797Z,98059.48
2019-02-07T09:33:27.040Z,98051.80
2019-02-07T09:36:36.005Z,98049.03
2019-02-07T09:39:42.086Z,98045.89
2019-02-07T09:43:00.413Z,98045.50
2019-02-07T09:46:13.623Z,98047.33
2019-02-07T09:49:26.262Z,98043.77
2019-02-07T09:52:38.931Z,98039.28
2019-02-07T09:55:45.863Z,98038.55
2019-02-07T09:59:07.872Z,98038.75
2019-02-07T10:02:13.940Z,98042.41
2019-02-07T10:05:20.014Z,98047.92
2019-02-07T10:08:41.327Z,98047.92
2019-02-07T10:11:59.694Z,98044.31
2019-02-07T10:15:23.969Z,98041.84
2019-02-07T10:18:46.576Z,98045.83
2019-02-07T10:21:58.986Z,98049.80
2019-02-07T10:25:17.377Z,98040.52
2019-02-07T10:28:35.736Z,98039.88
2019-02-07T10:31:44.774Z,98038.80
2019-02-07T10:35:06.819Z,98042.97
2019-02-07T10:38:15.606Z,98041.52
2019-02-07T10:41:38.280Z,98035.89
2019-02-07T10:45:00.111Z,98035.64
2019-02-07T10:48:24.096Z,98028.05
2019-02-07T10:51:39.372Z,98030.88
2019-02-07T10:55:01.511Z,98029.25
2019-02-07T10:58:06.346Z,98021.09
2019-02-07T11:01:22.271Z,98023.28
2019-02-07T11:04:26.467Z,98019.31
2019-02-07T11:07:50.641Z,98023.67
2019-02-07T11:11:12.910Z,98019.98
2019-02-07T11:14:21.651Z,98015.25
2019-02-07T11:17:42.762Z,98016.17
2019-02-07T11:21:00.508Z,98010.61
2019-02-07T11:24:23.419Z,98014.44
2019-02-07T11:27:45.690Z,98011.37
2019-02-07T11:30:51.778Z,98001.55
2019-02-07T11:34:06.898Z,98004.69
2019-02-07T11:37:11.106Z,98003.77
2019-02-07T11:40:23.697Z,98000.48
2019-02-07T11:43:46.017Z,98002.69
2019-02-07T11:47:04.987Z,97996.61
2019-02-07T11:50:15.396Z,98000.12
2019-02-07T11:53:24.737Z,97995.57
2019-02-07T11:56:40.615Z,97993.48
2019-02-07T11:59:49.465Z,97997.02
2019-02-07T12:03:14.279Z,97995.52
2019-02-07T12:06:29.410Z,97981.08
2019-02-07T12:09:52.582Z,97992.97
2019-02-07T12:13:02.780Z,98000.55
2019-02-07T12:16:11.540Z,97997.68
2019-02-07T12:19:23.578Z,97987.07
2019-02-07T12:22:29.963Z,97990.04
2019-02-07T12:25:47.888Z,97976.98
2019-02-07T12:28:53.969Z,97969.14
2019-02-07T12:32:16.309Z,97967.72
2019-02-07T12:35:34.351Z,97980.39
2019-02-07T12:38:46.423Z,97981.64
2019-02-07T12:42:09.182Z,97984.09
2019-02-07T12:45:32.121Z,97987.27
2019-02-07T12:48:38.185Z,97979.66
2019-02-07T12:51:44.285Z,97980.20
2019-02-07T12:54:53.308Z,97973.25
2019-02-07T12:58:09.264Z,97968.78
2019-02-07T13:01:18.545Z,97974.28
2019-02-07T13:04:25.843Z,97979.91
2019-02-07T13:07:34.781Z,97973.55
2019-02-07T13:10:46.321Z,97971.19
2019-02-07T13:14:03.181Z,97962.76
2019-02-07T13:17:12.712Z,97965.82
2019-02-07T13:20:30.758Z,97960.98
2019-02-07T13:23:52.668Z,97957.87
2019-02-07T13:27:08.793Z,97946.53
2019-02-07T13:30:35.564Z,97946.30
2019-02-07T13:33:41.907Z,97958.80
2019-02-07T13:37:02.962Z,97961.20
2019-02-07T13:40:25.155Z,97953.03
2019-02-07T13:43:47.262Z,97950.47
2019-02-07T13:46:53.340Z,97939.55
2019-02-07T13:50:15.500Z,97939.13
2019-02-07T13:53:24.207Z,97945.83
2019-02-07T13:56:33.267Z,97945.36
2019-02-07T13:59:51.173Z,97945.45
2019-02-07T14:02:57.254Z,97951.09
2019-02-07T14:06:12.197Z,97952.54
2019-02-07T14:09:18.275Z,97949.08
2019-02-07T14:12:37.150Z,97953.55
2019-02-07T14:15:43.216Z,97952.78
2019-02-07T14:18:55.222Z,97956.10
2019-02-07T14:22:07.115Z,97955.36
2019-02-07T14:25:13.582Z,97960.71
2019-02-07T14:28:29.352Z,97966.29
2019-02-07T14:31:35.416Z,97963.34
2019-02-07T14:34:47.342Z,97970.84
2019-02-07T14:38:09.981Z,97975.43
2019-02-07T14:41:19.527Z,97977.28
2019-02-07T14:44:43.339Z,97976.50
2019-02-07T14:47:48.040Z,97979.16
2019-02-07T14:50:52.975Z,97988.77
2019-02-07T14:54:00.601Z,97991.45
2019-02-07T14:57:03.942Z,97999.72
2019-02-07T15:00:15.786Z,98000.53
2019-02-07T15:03:20.213Z,98009.86
2019-02-07T15:06:24.639Z,98009.33
2019-02-07T15:09:29.072Z,98017.59
2019-02-07T15:12:33.523Z,98024.23
2019-02-07T15:15:37.941Z,98030.38
2019-02-07T15:18:42.716Z,98040.71
2019-02-07T15:21:47.218Z,98039.53
2019-02-07T15:24:51.973Z,98038.40
2019-02-07T15:27:56.707Z,98046.31
2019-02-07T15:31:01.125Z,98055.07
2019-02-07T15:34:06.432Z,98055.13
2019-02-07T15:37:11.201Z,98054.80
2019-02-07T15:40:22.239Z,98054.19
2019-02-07T15:43:27.216Z,98052.19
2019-02-07T15:46:31.641Z,98037.91
2019-02-07T15:49:36.578Z,98054.61
2019-02-07T15:52:42.536Z,98044.39
2019-02-07T15:55:47.690Z,98049.17
2019-02-07T15:58:56.455Z,98055.53
2019-02-07T16:02:02.932Z,98056.53
2019-02-07T16:05:12.149Z,98060.48
2019-02-07T16:08:16.615Z,98064.99
2019-02-07T16:11:21.362Z,98061.48
2019-02-07T16:14:25.806Z,98066.63
2019-02-07T16:17:32.325Z,98063.14
2019-02-07T16:20:36.518Z,98065.59
2019-02-07T16:23:40.961Z,98072.92
2019-02-07T16:26:46.778Z,98064.48
2019-02-07T16:29:51.203Z,98068.45
2019-02-07T16:32:55.631Z,98071.08
2019-02-07T16:36:00.337Z,98065.97
2019-02-07T16:39:07.824Z,98068.63
2019-02-07T16:42:12.238Z,98075.77
2019-02-07T16:45:22.996Z,98066.11
2019-02-07T16:48:27.422Z,98064.00
2019-02-07T16:51:32.198Z,98065.34
2019-02-07T16:54:36.919Z,98069.21
2019-02-07T16:57:42.468Z,98073.64
2019-02-07T17:00:47.195Z,98080.76
2019-02-07T17:03:51.616Z,98082.22
2019-02-07T17:06:56.050Z,98083.77
2019-02-07T17:10:00.900Z,98091.97
2019-02-07T17:13:11.908Z,98094.63
2019-02-07T17:16:16.682Z,98092.06
2019-02-07T17:19:21.418Z,98094.84
2019-02-07T17:22:26.147Z,98096.04
2019-02-07T17:25:32.988Z,98113.79
2019-02-07T17:28:37.648Z,98121.05
2019-02-07T17:31:42.078Z,98130.05
2019-02-07T17:34:46.807Z,98123.34
2019-02-07T17:37:51.744Z,98126.45
2019-02-07T17:40:56.180Z,98133.95
2019-02-07T17:44:00.896Z,98131.28
2019-02-07T17:47:05.733Z,98136.05
2019-02-07T17:50:23.872Z,98143.75
2019-02-07T17:53:28.302Z,98146.68
2019-02-07T17:56:32.734Z,98145.45
2019-02-07T17:59:37.163Z,98152.46
2019-02-07T18:02:41.601Z,98157.78
2019-02-07T18:05:46.101Z,98167.61
2019-02-07T18:08:50.526Z,98175.59
2019-02-07T18:11:54.954Z,98165.22
2019-02-07T18:14:59.387Z,98168.38
2019-02-07T18:18:04.509Z,98177.59
2019-02-07T18:21:08.958Z,98183.20
2019-02-07T18:24:13.392Z,98185.62
2019-02-07T18:27:17.820Z,98196.19
2019-02-07T18:30:23.594Z,98193.36
2019-02-07T18:33:28.021Z,98193.16
2019-02-07T18:36:32.783Z,98202.94
2019-02-07T18:39:37.520Z,98214.91
2019-02-07T18:42:41.962Z,98224.31
2019-02-07T18:45:46.399Z,98231.50
2019-02-07T18:48:50.831Z,98237.55
2019-02-07T18:51:55.288Z,98242.19
2019-02-07T18:54:59.697Z,98236.33
2019-02-07T18:58:04.943Z,98246.01
2019-02-07T19:01:09.463Z,98248.07
2019-02-07T19:04:14.136Z,98261.30
2019-02-07T19:07:18.576Z,98264.47
2019-02-07T19:10:26.363Z,98265.91
2019-02-07T19:13:30.789Z,98274.52
2019-02-07T19:16:35.522Z,98295.19
2019-02-07T19:19:39.948Z,98297.91
2019-02-07T19:22:44.386Z,98301.56
2019-02-07T19:25:49.097Z,98292.59
2019-02-07T19:28:53.517Z,98293.17
2019-02-07T19:31:58.425Z,98292.05
2019-02-07T19:35:02.862Z,98283.58
2019-02-07T19:38:07.353Z,98289.28
2019-02-07T19:41:12.438Z,98291.61
2019-02-07T19:44:16.873Z,98295.67
2019-02-07T19:47:21.311Z,98297.43
2019-02-07T19:50:28.029Z,98293.75
2019-02-07T19:53:32.808Z,98301.41
2019-02-07T19:56:37.241Z,98297.00
2019-02-07T19:59:41.961Z,98307.22
2019-02-07T20:02:46.465Z,98306.98
2019-02-07T20:05:50.899Z,98306.00
2019-02-07T20:08:56.045Z,98314.21
2019-02-07T20:12:00.785Z,98321.12
2019-02-07T20:15:12.645Z,98320.34
2019-02-07T20:18:17.086Z,98324.34
2019-02-07T20:21:21.524Z,98322.85
2019-02-07T20:24:26.013Z,98317.30
2019-02-07T20:27:30.880Z,98322.11
2019-02-07T20:30:44.405Z,98327.14
2019-02-07T20:33:49.147Z,98328.00
2019-02-07T20:36:53.876Z,98324.08
2019-02-07T20:39:58.299Z,98328.23
2019-02-07T20:43:03.031Z,98327.14
2019-02-07T20:46:07.804Z,98327.66
2019-02-07T20:49:12.261Z,98329.39
2019-02-07T20:52:16.691Z,98332.14
2019-02-07T20:55:22.026Z,98335.31
2019-02-07T20:58:26.468Z,98346.56
2019-02-07T21:01:30.981Z,98345.70
2019-02-07T21:04:35.421Z,98343.33
2019-02-07T21:07:40.160Z,98354.25
2019-02-07T21:10:44.584Z,98362.21
2019-02-07T21:13:49.018Z,98356.02
2019-02-07T21:16:53.452Z,98360.41
2019-02-07T21:19:57.872Z,98367.48
2019-02-07T21:23:02.578Z,98370.81
2019-02-07T21:26:07.061Z,98377.52
2019-02-07T21:29:11.738Z,98377.45
2019-02-07T21:32:16.249Z,98380.66
2019-02-07T21:35:22.286Z,98382.33
2019-02-07T21:38:27.051Z,98392.30
2019-02-07T21:41:32.091Z,98393.68
2019-02-07T21:44:36.587Z,98401.59
2019-02-07T21:47:41.021Z,98396.36
2019-02-07T21:50:46.081Z,98398.38
2019-02-07T21:53:50.857Z,98399.36
2019-02-07T21:56:55.545Z,98409.28
2019-02-07T22:00:01.026Z,98411.64
2019-02-07T22:03:09.143Z,98413.63
2019-02-07T22:06:13.831Z,98417.05
2019-02-07T22:09:18.561Z,98411.95
2019-02-07T22:12:22.987Z,98422.86
2019-02-07T22:15:29.040Z,98428.65
2019-02-07T22:18:33.783Z,98426.68
2019-02-07T22:21:38.276Z,98434.65
2019-02-07T22:24:43.045Z,98441.02
2019-02-07T22:27:47.977Z,98450.34
2019-02-07T22:30:52.451Z,98444.34
2019-02-07T22:33:57.225Z,98453.72
2019-02-07T22:37:01.959Z,98459.81
2019-02-07T22:40:11.119Z,98454.41
2019-02-07T22:43:15.554Z,98460.30
2019-02-07T22:46:19.981Z,98459.70
2019-02-07T22:49:24.418Z,98457.14
2019-02-07T22:52:28.868Z,98466.44
2019-02-07T22:55:33.304Z,98473.84
2019-02-07T22:58:38.039Z,98467.60
2019-02-07T23:01:44.674Z,98470.77
2019-02-07T23:04:49.172Z,98474.13
2019-02-07T23:07:53.892Z,98469.67
2019-02-07T23:10:58.312Z,98473.07
2019-02-07T23:14:02.818Z,98478.16
2019-02-07T23:17:07.970Z,98477.17
2019-02-07T23:20:12.647Z,98479.67
2019-02-07T23:23:17.097Z,98471.44
2019-02-07T23:26:21.524Z,98477.56
2019-02-07T23:29:25.973Z,98486.00
2019-02-07T23:32:30.695Z,98475.91
2019-02-07T23:35:35.144Z,98478.16
2019-02-07T23:38:39.648Z,98474.67
2019-02-07T23:41:44.073Z,98473.59
2019-02-07T23:44:48.504Z,98477.67
2019-02-07T23:47:53.227Z,98478.58
2019-02-07T23:50:57.952Z,98480.09
2019-02-07T23:54:02.389Z,98470.72
2019-02-07T23:57:07.109Z,98468.92
